sensor_id;sensor_type;location;lat;lon;timestamp;pressure;altitude;pressure_sealevel;temperature;humidity
14966;BME280;7577;45.226;5.798;2022-09-09T00:20:11;97912.28;;;19.41;86.71
14966;BME280;7577;45.226;5.798;2022-09-09T00:22:45;97920.00;;;19.30;86.48
14966;BME280;7577;45.226;5.798;2022-09-09T00:38:31;97914.47;;;19.36;84.02
14966;BME280;7577;45.226;5.798;2022-09-09T00:44:16;97918.27;;;19.37;83.40
14966;BME280;7577;45.226;5.798;2022-09-09T00:47:01;97926.91;;;19.30;81.99
14966;BME280;7577;45.226;5.798;2022-09-09T00:49:39;97919.84;;;19.20;83.21
14966;BME280;7577;45.226;5.798;2022-09-09T00:52:23;97920.17;;;18.83;84.16
14966;BME280;7577;45.226;5.798;2022-09-09T00:54:59;97921.20;;;18.90;85.20
14966;BME280;7577;45.226;5.798;2022-09-09T00:57:37;97914.09;;;19.07;85.13
14966;BME280;7577;45.226;5.798;2022-09-09T01:00:26;97914.72;;;19.25;85.23
14966;BME280;7577;45.226;5.798;2022-09-09T01:03:22;97915.37;;;19.22;83.42
14966;BME280;7577;45.226;5.798;2022-09-09T01:15:19;97926.16;;;18.97;81.53
14966;BME280;7577;45.226;5.798;2022-09-09T01:48:13;97920.40;;;18.78;80.81
14966;BME280;7577;45.226;5.798;2022-09-09T02:12:25;97927.39;;;18.37;86.97
14966;BME280;7577;45.226;5.798;2022-09-09T02:18:01;97941.48;;;18.03;88.61
14966;BME280;7577;45.226;5.798;2022-09-09T02:27:10;97939.60;;;17.95;87.59
14966;BME280;7577;45.226;5.798;2022-09-09T02:32:40;97932.67;;;18.09;86.35
14966;BME280;7577;45.226;5.798;2022-09-09T02:48:45;97914.72;;;17.77;89.41
14966;BME280;7577;45.226;5.798;2022-09-09T02:54:04;97915.25;;;17.50;90.91
14966;BME280;7577;45.226;5.798;2022-09-09T02:56:46;97921.87;;;17.49;91.22
14966;BME280;7577;45.226;5.798;2022-09-09T03:02:00;97913.71;;;17.17;92.84
14966;BME280;7577;45.226;5.798;2022-09-09T03:04:30;97909.86;;;16.95;93.42
14966;BME280;7577;45.226;5.798;2022-09-09T03:07:01;97912.95;;;16.85;92.92
14966;BME280;7577;45.226;5.798;2022-09-09T03:09:35;97913.64;;;16.82;93.36
14966;BME280;7577;45.226;5.798;2022-09-09T03:12:05;97911.03;;;16.86;92.90
14966;BME280;7577;45.226;5.798;2022-09-09T03:14:45;97911.26;;;16.87;94.48
14966;BME280;7577;45.226;5.798;2022-09-09T03:22:39;97924.75;;;17.09;94.26
14966;BME280;7577;45.226;5.798;2022-09-09T03:25:10;97928.09;;;16.85;95.94
14966;BME280;7577;45.226;5.798;2022-09-09T03:27:40;97926.98;;;16.78;97.04
14966;BME280;7577;45.226;5.798;2022-09-09T03:30:11;97933.77;;;16.80;96.68
14966;BME280;7577;45.226;5.798;2022-09-09T03:32:46;97938.65;;;16.98;95.85
14966;BME280;7577;45.226;5.798;2022-09-09T03:42:16;97940.67;;;16.95;96.33
14966;BME280;7577;45.226;5.798;2022-09-09T03:58:40;97954.06;;;16.33;99.04
14966;BME280;7577;45.226;5.798;2022-09-09T04:01:12;97960.05;;;16.27;100.00
14966;BME280;7577;45.226;5.798;2022-09-09T04:03:45;97953.05;;;16.32;100.00
14966;BME280;7577;45.226;5.798;2022-09-09T04:15:11;97958.11;;;16.53;99.47
14966;BME280;7577;45.226;5.798;2022-09-09T04:17:41;97959.20;;;16.69;98.57
14966;BME280;7577;45.226;5.798;2022-09-09T04:20:12;97950.91;;;16.63;97.97
14966;BME280;7577;45.226;5.798;2022-09-09T04:22:42;97947.66;;;16.84;96.93
14966;BME280;7577;45.226;5.798;2022-09-09T04:25:13;97948.52;;;16.90;95.69
14966;BME280;7577;45.226;5.798;2022-09-09T04:27:43;97950.03;;;16.79;96.70
14966;BME280;7577;45.226;5.798;2022-09-09T04:30:14;97948.84;;;16.51;99.21
14966;BME280;7577;45.226;5.798;2022-09-09T04:32:45;97946.33;;;16.75;98.58
14966;BME280;7577;45.226;5.798;2022-09-09T04:37:59;97960.17;;;16.73;98.02
14966;BME280;7577;45.226;5.798;2022-09-09T04:40:31;97964.02;;;16.80;96.80
14966;BME280;7577;45.226;5.798;2022-09-09T04:45:50;97954.53;;;16.69;96.78
14966;BME280;7577;45.226;5.798;2022-09-09T04:48:21;97958.52;;;16.49;97.55
14966;BME280;7577;45.226;5.798;2022-09-09T04:50:57;97958.56;;;16.72;95.98
14966;BME280;7577;45.226;5.798;2022-09-09T04:53:30;97966.13;;;16.75;96.60
14966;BME280;7577;45.226;5.798;2022-09-09T04:56:35;97967.95;;;16.71;97.35
14966;BME280;7577;45.226;5.798;2022-09-09T04:59:16;97966.58;;;16.71;97.43
14966;BME280;7577;45.226;5.798;2022-09-09T05:01:53;97967.59;;;16.81;95.85
14966;BME280;7577;45.226;5.798;2022-09-09T05:07:49;97970.41;;;16.30;99.63
14966;BME280;7577;45.226;5.798;2022-09-09T05:10:21;97969.84;;;16.22;100.00
14966;BME280;7577;45.226;5.798;2022-09-09T05:12:54;97978.17;;;16.19;100.00
14966;BME280;7577;45.226;5.798;2022-09-09T05:15:25;97977.78;;;16.15;100.00
14966;BME280;7577;45.226;5.798;2022-09-09T05:17:58;97978.41;;;16.29;100.00
14966;BME280;7577;45.226;5.798;2022-09-09T05:20:29;97976.33;;;16.43;100.00
14966;BME280;7577;45.226;5.798;2022-09-09T05:25:52;97980.21;;;15.99;100.00
14966;BME280;7577;45.226;5.798;2022-09-09T05:31:00;97981.09;;;15.89;100.00
14966;BME280;7577;45.226;5.798;2022-09-09T05:36:15;97990.55;;;16.11;100.00
14966;BME280;7577;45.226;5.798;2022-09-09T05:38:46;97994.80;;;16.40;100.00
14966;BME280;7577;45.226;5.798;2022-09-09T05:41:16;98002.11;;;16.44;100.00
14966;BME280;7577;45.226;5.798;2022-09-09T05:46:32;98005.18;;;16.83;99.69
14966;BME280;7577;45.226;5.798;2022-09-09T05:49:03;98009.25;;;16.77;99.40
14966;BME280;7577;45.226;5.798;2022-09-09T05:54:18;98004.53;;;17.09;98.17
14966;BME280;7577;45.226;5.798;2022-09-09T05:56:48;98008.97;;;17.16;97.74
14966;BME280;7577;45.226;5.798;2022-09-09T05:59:19;98011.78;;;16.99;96.69
14966;BME280;7577;45.226;5.798;2022-09-09T06:01:51;98010.40;;;16.67;98.24
14966;BME280;7577;45.226;5.798;2022-09-09T06:04:22;98008.14;;;16.69;99.31
14966;BME280;7577;45.226;5.798;2022-09-09T06:06:53;98008.11;;;16.78;99.77
14966;BME280;7577;45.226;5.798;2022-09-09T06:09:23;98006.96;;;17.10;98.45
14966;BME280;7577;45.226;5.798;2022-09-09T06:11:53;98012.39;;;17.50;98.08
14966;BME280;7577;45.226;5.798;2022-09-09T06:14:24;98016.39;;;18.52;91.20
14966;BME280;7577;45.226;5.798;2022-09-09T06:16:56;98010.89;;;19.53;84.17
14966;BME280;7577;45.226;5.798;2022-09-09T06:19:26;98010.72;;;20.55;80.25
14966;BME280;7577;45.226;5.798;2022-09-09T06:21:56;98018.73;;;22.71;69.09
14966;BME280;7577;45.226;5.798;2022-09-09T06:24:28;98013.39;;;24.72;60.43
14966;BME280;7577;45.226;5.798;2022-09-09T06:26:59;98012.39;;;26.48;53.54
14966;BME280;7577;45.226;5.798;2022-09-09T06:29:29;98015.20;;;27.86;48.66
14966;BME280;7577;45.226;5.798;2022-09-09T06:31:59;98015.31;;;28.54;46.32
14966;BME280;7577;45.226;5.798;2022-09-09T06:37:12;98008.36;;;30.35;42.29
14966;BME280;7577;45.226;5.798;2022-09-09T06:39:43;98012.34;;;31.20;39.92
14966;BME280;7577;45.226;5.798;2022-09-09T06:44:55;98010.78;;;31.60;37.76
14966;BME280;7577;45.226;5.798;2022-09-09T06:47:25;98011.81;;;31.96;36.91
14966;BME280;7577;45.226;5.798;2022-09-09T06:49:55;98002.63;;;32.69;35.51
14966;BME280;7577;45.226;5.798;2022-09-09T06:52:27;98017.20;;;31.34;35.88
14966;BME280;7577;45.226;5.798;2022-09-09T06:54:58;98027.33;;;31.70;36.06
14966;BME280;7577;45.226;5.798;2022-09-09T06:57:28;98034.81;;;33.03;34.14
14966;BME280;7577;45.226;5.798;2022-09-09T06:59:58;98032.59;;;32.94;33.34
14966;BME280;7577;45.226;5.798;2022-09-09T07:02:29;98030.08;;;33.63;32.42
14966;BME280;7577;45.226;5.798;2022-09-09T07:04:59;98032.63;;;33.10;32.35
14966;BME280;7577;45.226;5.798;2022-09-09T07:07:29;98031.38;;;32.53;34.09
14966;BME280;7577;45.226;5.798;2022-09-09T07:09:59;98029.09;;;33.62;32.77
14966;BME280;7577;45.226;5.798;2022-09-09T07:12:29;98028.72;;;33.24;33.13
14966;BME280;7577;45.226;5.798;2022-09-09T07:15:00;98025.92;;;33.76;32.26
14966;BME280;7577;45.226;5.798;2022-09-09T07:17:30;98025.11;;;32.96;32.79
14966;BME280;7577;45.226;5.798;2022-09-09T07:20:00;98015.37;;;32.12;33.80
14966;BME280;7577;45.226;5.798;2022-09-09T07:22:32;98015.84;;;32.64;33.00
14966;BME280;7577;45.226;5.798;2022-09-09T07:25:03;98008.73;;;33.70;31.62
14966;BME280;7577;45.226;5.798;2022-09-09T07:27:33;98008.95;;;33.43;31.83
14966;BME280;7577;45.226;5.798;2022-09-09T07:30:04;98010.61;;;34.01;30.70
14966;BME280;7577;45.226;5.798;2022-09-09T07:32:35;98010.31;;;33.71;31.50
14966;BME280;7577;45.226;5.798;2022-09-09T07:35:06;98011.31;;;32.78;32.25
14966;BME280;7577;45.226;5.798;2022-09-09T07:37:38;98011.16;;;33.44;31.96
14966;BME280;7577;45.226;5.798;2022-09-09T07:40:09;98022.59;;;32.78;32.75
14966;BME280;7577;45.226;5.798;2022-09-09T07:45:24;98023.30;;;34.25;30.15
14966;BME280;7577;45.226;5.798;2022-09-09T07:47:56;98016.61;;;33.43;31.37
14966;BME280;7577;45.226;5.798;2022-09-09T07:50:27;98014.05;;;34.40;30.29
14966;BME280;7577;45.226;5.798;2022-09-09T07:52:57;98018.97;;;35.75;28.48
14966;BME280;7577;45.226;5.798;2022-09-09T07:55:28;98019.45;;;35.74;27.98
14966;BME280;7577;45.226;5.798;2022-09-09T07:57:58;98029.80;;;35.27;28.93
14966;BME280;7577;45.226;5.798;2022-09-09T08:00:29;98032.61;;;35.97;27.80
14966;BME280;7577;45.226;5.798;2022-09-09T08:02:59;98026.89;;;33.69;30.99
14966;BME280;7577;45.226;5.798;2022-09-09T08:05:29;98030.02;;;33.31;31.04
14966;BME280;7577;45.226;5.798;2022-09-09T08:07:59;98033.74;;;33.88;29.82
14966;BME280;7577;45.226;5.798;2022-09-09T08:13:10;98030.25;;;34.60;28.72
14966;BME280;7577;45.226;5.798;2022-09-09T08:18:29;98017.20;;;34.50;28.50
14966;BME280;7577;45.226;5.798;2022-09-09T08:21:08;98020.23;;;33.95;30.17
14966;BME280;7577;45.226;5.798;2022-09-09T08:23:41;98018.73;;;34.31;29.68
14966;BME280;7577;45.226;5.798;2022-09-09T08:26:13;98018.39;;;35.14;28.55
14966;BME280;7577;45.226;5.798;2022-09-09T08:28:44;98017.02;;;35.47;28.02
14966;BME280;7577;45.226;5.798;2022-09-09T08:31:15;98021.27;;;35.47;29.03
14966;BME280;7577;45.226;5.798;2022-09-09T08:36:33;98019.53;;;33.20;31.58
14966;BME280;7577;45.226;5.798;2022-09-09T08:39:05;98032.98;;;32.85;31.71
14966;BME280;7577;45.226;5.798;2022-09-09T08:41:55;98026.73;;;33.76;30.29
14966;BME280;7577;45.226;5.798;2022-09-09T08:44:32;98021.69;;;33.60;30.55
14966;BME280;7577;45.226;5.798;2022-09-09T08:50:07;98027.08;;;32.87;32.40
14966;BME280;7577;45.226;5.798;2022-09-09T08:52:41;98028.06;;;31.17;34.61
14966;BME280;7577;45.226;5.798;2022-09-09T08:55:19;98024.56;;;31.40;34.37
14966;BME280;7577;45.226;5.798;2022-09-09T08:57:48;98026.95;;;31.68;33.42
14966;BME280;7577;45.226;5.798;2022-09-09T09:00:20;98031.22;;;30.56;35.33
14966;BME280;7577;45.226;5.798;2022-09-09T09:02:55;98033.47;;;29.61;37.19
14966;BME280;7577;45.226;5.798;2022-09-09T09:05:28;98032.73;;;28.50;39.70
14966;BME280;7577;45.226;5.798;2022-09-09T09:08:03;98027.47;;;28.73;38.83
14966;BME280;7577;45.226;5.798;2022-09-09T09:10:41;98025.52;;;29.78;38.78
14966;BME280;7577;45.226;5.798;2022-09-09T09:13:18;98022.23;;;29.61;37.57
14966;BME280;7577;45.226;5.798;2022-09-09T09:15:54;98024.50;;;30.02;36.17
14966;BME280;7577;45.226;5.798;2022-09-09T09:18:25;98027.63;;;29.64;37.37
14966;BME280;7577;45.226;5.798;2022-09-09T09:21:00;98025.44;;;30.51;35.49
14966;BME280;7577;45.226;5.798;2022-09-09T09:23:33;98029.09;;;30.70;35.18
14966;BME280;7577;45.226;5.798;2022-09-09T09:26:09;98027.89;;;31.01;33.66
14966;BME280;7577;45.226;5.798;2022-09-09T09:28:41;98026.50;;;30.64;35.29
14966;BME280;7577;45.226;5.798;2022-09-09T09:31:12;98031.69;;;28.66;38.06
14966;BME280;7577;45.226;5.798;2022-09-09T09:33:48;98022.06;;;28.74;37.96
14966;BME280;7577;45.226;5.798;2022-09-09T09:39:02;98020.30;;;28.58;38.11
14966;BME280;7577;45.226;5.798;2022-09-09T09:41:37;98022.58;;;27.78;39.77
14966;BME280;7577;45.226;5.798;2022-09-09T09:44:24;98029.97;;;27.73;39.78
14966;BME280;7577;45.226;5.798;2022-09-09T09:49:55;98021.05;;;27.15;41.31
14966;BME280;7577;45.226;5.798;2022-09-09T09:52:28;98024.03;;;27.09;41.04
14966;BME280;7577;45.226;5.798;2022-09-09T09:54:59;98022.22;;;27.03;40.80
14966;BME280;7577;45.226;5.798;2022-09-09T09:57:32;98018.56;;;26.85;42.21
14966;BME280;7577;45.226;5.798;2022-09-09T10:00:12;98010.17;;;26.44;42.25
14966;BME280;7577;45.226;5.798;2022-09-09T10:02:41;98003.58;;;26.46;41.93
14966;BME280;7577;45.226;5.798;2022-09-09T10:08:04;98004.11;;;26.62;40.76
14966;BME280;7577;45.226;5.798;2022-09-09T10:10:53;98003.81;;;26.47;40.94
14966;BME280;7577;45.226;5.798;2022-09-09T10:16:31;97991.59;;;26.39;39.84
14966;BME280;7577;45.226;5.798;2022-09-09T10:19:03;97994.06;;;26.20;42.42
14966;BME280;7577;45.226;5.798;2022-09-09T10:21:52;97994.16;;;26.04;42.56
14966;BME280;7577;45.226;5.798;2022-09-09T10:24:42;97991.36;;;26.00;44.44
14966;BME280;7577;45.226;5.798;2022-09-09T10:27:16;97991.29;;;25.70;41.47
14966;BME280;7577;45.226;5.798;2022-09-09T10:30:01;97989.58;;;25.78;40.91
14966;BME280;7577;45.226;5.798;2022-09-09T10:32:49;97986.17;;;25.79;39.66
14966;BME280;7577;45.226;5.798;2022-09-09T10:38:24;97987.16;;;25.50;42.19
14966;BME280;7577;45.226;5.798;2022-09-09T10:44:17;97981.95;;;25.48;42.12
14966;BME280;7577;45.226;5.798;2022-09-09T10:47:01;97984.41;;;25.57;41.33
14966;BME280;7577;45.226;5.798;2022-09-09T10:49:43;97980.31;;;25.44;42.43
14966;BME280;7577;45.226;5.798;2022-09-09T10:52:15;97980.77;;;25.49;42.68
14966;BME280;7577;45.226;5.798;2022-09-09T10:54:52;97975.47;;;25.37;40.51
14966;BME280;7577;45.226;5.798;2022-09-09T10:57:27;97978.66;;;25.19;42.76
14966;BME280;7577;45.226;5.798;2022-09-09T11:00:03;97970.03;;;25.28;39.45
14966;BME280;7577;45.226;5.798;2022-09-09T11:02:35;97971.34;;;25.41;40.83
14966;BME280;7577;45.226;5.798;2022-09-09T11:05:10;97969.50;;;25.59;38.48
14966;BME280;7577;45.226;5.798;2022-09-09T11:07:44;97963.84;;;25.28;39.87
14966;BME280;7577;45.226;5.798;2022-09-09T11:10:21;97968.86;;;25.32;39.89
14966;BME280;7577;45.226;5.798;2022-09-09T11:12:55;97960.97;;;25.21;39.28
14966;BME280;7577;45.226;5.798;2022-09-09T11:18:11;97946.17;;;25.34;41.64
14966;BME280;7577;45.226;5.798;2022-09-09T11:20:43;97950.41;;;25.21;42.79
14966;BME280;7577;45.226;5.798;2022-09-09T11:23:17;97948.78;;;25.36;42.85
14966;BME280;7577;45.226;5.798;2022-09-09T11:25:51;97943.59;;;25.58;41.14
14966;BME280;7577;45.226;5.798;2022-09-09T11:28:31;97947.39;;;25.60;42.94
14966;BME280;7577;45.226;5.798;2022-09-09T11:31:10;97939.93;;;25.74;41.96
14966;BME280;7577;45.226;5.798;2022-09-09T11:36:52;97939.83;;;25.60;40.89
14966;BME280;7577;45.226;5.798;2022-09-09T11:39:50;97947.65;;;25.68;42.21
14966;BME280;7577;45.226;5.798;2022-09-09T11:42:22;97946.34;;;25.78;41.52
14966;BME280;7577;45.226;5.798;2022-09-09T11:44:53;97942.45;;;25.66;42.38
14966;BME280;7577;45.226;5.798;2022-09-09T11:47:28;97943.84;;;25.66;40.17
14966;BME280;7577;45.226;5.798;2022-09-09T11:52:50;97943.73;;;25.49;42.59
14966;BME280;7577;45.226;5.798;2022-09-09T11:55:27;97947.97;;;25.59;41.97
14966;BME280;7577;45.226;5.798;2022-09-09T11:58:00;97952.28;;;25.73;42.32
14966;BME280;7577;45.226;5.798;2022-09-09T12:00:35;97958.08;;;25.78;39.51
14966;BME280;7577;45.226;5.798;2022-09-09T12:03:08;97956.31;;;25.83;40.68
14966;BME280;7577;45.226;5.798;2022-09-09T12:05:42;97958.06;;;25.74;40.79
14966;BME280;7577;45.226;5.798;2022-09-09T12:08:16;97958.27;;;25.75;40.30
14966;BME280;7577;45.226;5.798;2022-09-09T12:10:55;97964.87;;;25.80;38.39
14966;BME280;7577;45.226;5.798;2022-09-09T12:13:29;97964.67;;;25.79;39.87
14966;BME280;7577;45.226;5.798;2022-09-09T12:16:01;97955.02;;;25.70;38.15
14966;BME280;7577;45.226;5.798;2022-09-09T12:18:35;97960.56;;;25.63;38.85
14966;BME280;7577;45.226;5.798;2022-09-09T12:21:11;97967.44;;;25.49;36.91
14966;BME280;7577;45.226;5.798;2022-09-09T12:23:44;97965.63;;;25.50;39.55
14966;BME280;7577;45.226;5.798;2022-09-09T12:26:25;97964.32;;;25.61;36.80
14966;BME280;7577;45.226;5.798;2022-09-09T12:29:05;97959.03;;;25.72;38.70
14966;BME280;7577;45.226;5.798;2022-09-09T12:31:39;97959.86;;;25.76;38.30
14966;BME280;7577;45.226;5.798;2022-09-09T12:37:02;97944.38;;;25.82;37.60
14966;BME280;7577;45.226;5.798;2022-09-09T12:39:35;97955.15;;;25.84;38.46
14966;BME280;7577;45.226;5.798;2022-09-09T12:44:57;97943.37;;;25.84;37.31
14966;BME280;7577;45.226;5.798;2022-09-09T12:47:38;97945.49;;;25.71;38.78
14966;BME280;7577;45.226;5.798;2022-09-09T12:50:19;97939.31;;;25.48;37.98
14966;BME280;7577;45.226;5.798;2022-09-09T12:52:52;97933.92;;;25.45;36.46
14966;BME280;7577;45.226;5.798;2022-09-09T12:55:27;97933.88;;;25.38;34.64
14966;BME280;7577;45.226;5.798;2022-09-09T12:57:59;97937.89;;;25.24;36.18
14966;BME280;7577;45.226;5.798;2022-09-09T13:00:33;97930.08;;;25.37;35.79
14966;BME280;7577;45.226;5.798;2022-09-09T13:03:15;97926.75;;;25.44;35.90
14966;BME280;7577;45.226;5.798;2022-09-09T13:05:45;97938.62;;;25.58;35.75
14966;BME280;7577;45.226;5.798;2022-09-09T13:08:17;97928.75;;;25.71;35.83
14966;BME280;7577;45.226;5.798;2022-09-09T13:13:35;97927.47;;;25.58;36.15
14966;BME280;7577;45.226;5.798;2022-09-09T13:16:18;97922.68;;;25.35;34.68
14966;BME280;7577;45.226;5.798;2022-09-09T13:18:48;97925.61;;;25.49;35.74
14966;BME280;7577;45.226;5.798;2022-09-09T13:21:18;97916.52;;;25.35;34.22
14966;BME280;7577;45.226;5.798;2022-09-09T13:23:52;97917.91;;;25.35;35.75
14966;BME280;7577;45.226;5.798;2022-09-09T13:26:24;97918.75;;;25.39;36.39
14966;BME280;7577;45.226;5.798;2022-09-09T13:29:07;97922.56;;;25.44;35.85
14966;BME280;7577;45.226;5.798;2022-09-09T13:31:30;97923.92;;;25.64;34.07
14966;BME280;7577;45.226;5.798;2022-09-09T13:36:51;97919.83;;;25.78;35.71
14966;BME280;7577;45.226;5.798;2022-09-09T13:39:23;97922.82;;;25.79;33.93
14966;BME280;7577;45.226;5.798;2022-09-09T13:44:41;97922.75;;;25.69;34.43
14966;BME280;7577;45.226;5.798;2022-09-09T13:47:19;97924.11;;;25.62;34.76
14966;BME280;7577;45.226;5.798;2022-09-09T13:49:52;97919.96;;;25.42;36.24
14966;BME280;7577;45.226;5.798;2022-09-09T13:52:22;97926.55;;;25.43;36.93
14966;BME280;7577;45.226;5.798;2022-09-09T13:54:54;97923.98;;;25.48;36.42
14966;BME280;7577;45.226;5.798;2022-09-09T13:57:26;97926.45;;;25.56;36.33
14966;BME280;7577;45.226;5.798;2022-09-09T13:59:56;97919.30;;;25.59;33.07
14966;BME280;7577;45.226;5.798;2022-09-09T14:02:26;97917.80;;;25.72;34.05
14966;BME280;7577;45.226;5.798;2022-09-09T14:04:56;97916.41;;;25.75;35.69
14966;BME280;7577;45.226;5.798;2022-09-09T14:07:27;97919.77;;;25.71;34.71
14966;BME280;7577;45.226;5.798;2022-09-09T14:09:57;97920.59;;;25.75;33.79
14966;BME280;7577;45.226;5.798;2022-09-09T14:15:11;97928.80;;;25.81;32.69
14966;BME280;7577;45.226;5.798;2022-09-09T14:17:41;97922.55;;;25.68;34.91
14966;BME280;7577;45.226;5.798;2022-09-09T14:20:12;97926.67;;;25.61;35.18
14966;BME280;7577;45.226;5.798;2022-09-09T14:22:44;97927.93;;;25.67;35.15
14966;BME280;7577;45.226;5.798;2022-09-09T14:25:14;97940.23;;;25.62;35.37
14966;BME280;7577;45.226;5.798;2022-09-09T14:27:44;97938.20;;;25.59;35.16
14966;BME280;7577;45.226;5.798;2022-09-09T14:30:14;97928.80;;;25.51;35.95
14966;BME280;7577;45.226;5.798;2022-09-09T14:32:44;97936.69;;;25.42;33.74
14966;BME280;7577;45.226;5.798;2022-09-09T14:37:58;97933.06;;;25.61;34.65
14966;BME280;7577;45.226;5.798;2022-09-09T14:40:29;97938.85;;;25.66;33.35
14966;BME280;7577;45.226;5.798;2022-09-09T14:42:59;97937.92;;;25.48;33.36
14966;BME280;7577;45.226;5.798;2022-09-09T14:45:31;97933.54;;;25.47;33.99
14966;BME280;7577;45.226;5.798;2022-09-09T14:51:36;97938.47;;;25.40;33.26
14966;BME280;7577;45.226;5.798;2022-09-09T14:54:06;97944.02;;;25.37;30.49
14966;BME280;7577;45.226;5.798;2022-09-09T14:56:36;97944.76;;;25.30;32.35
14966;BME280;7577;45.226;5.798;2022-09-09T14:59:06;97936.85;;;25.19;30.25
14966;BME280;7577;45.226;5.798;2022-09-09T15:01:36;97938.47;;;25.20;32.30
14966;BME280;7577;45.226;5.798;2022-09-09T15:04:07;97943.03;;;25.19;34.07
14966;BME280;7577;45.226;5.798;2022-09-09T15:06:37;97945.59;;;25.18;33.17
14966;BME280;7577;45.226;5.798;2022-09-09T15:09:10;97937.10;;;25.04;30.82
14966;BME280;7577;45.226;5.798;2022-09-09T15:11:40;97938.98;;;25.13;32.88
14966;BME280;7577;45.226;5.798;2022-09-09T15:14:10;97949.72;;;25.31;32.33
14966;BME280;7577;45.226;5.798;2022-09-09T15:16:41;97944.33;;;25.28;31.92
14966;BME280;7577;45.226;5.798;2022-09-09T15:19:12;97943.16;;;25.13;30.70
14966;BME280;7577;45.226;5.798;2022-09-09T15:21:45;97940.63;;;25.17;30.53
14966;BME280;7577;45.226;5.798;2022-09-09T15:24:16;97941.45;;;25.01;31.14
14966;BME280;7577;45.226;5.798;2022-09-09T15:26:46;97939.53;;;25.09;31.59
14966;BME280;7577;45.226;5.798;2022-09-09T15:29:16;97942.27;;;25.02;31.46
14966;BME280;7577;45.226;5.798;2022-09-09T15:31:47;97941.89;;;25.03;32.81
14966;BME280;7577;45.226;5.798;2022-09-09T15:36:59;97943.15;;;24.73;32.42
14966;BME280;7577;45.226;5.798;2022-09-09T15:39:29;97945.09;;;24.69;33.13
14966;BME280;7577;45.226;5.798;2022-09-09T15:44:44;97922.55;;;24.81;33.99
14966;BME280;7577;45.226;5.798;2022-09-09T15:47:14;97932.56;;;24.85;32.82
14966;BME280;7577;45.226;5.798;2022-09-09T15:49:45;97928.58;;;24.86;34.25
14966;BME280;7577;45.226;5.798;2022-09-09T15:52:15;97932.56;;;24.85;32.96
14966;BME280;7577;45.226;5.798;2022-09-09T15:54:45;97922.28;;;24.93;32.33
14966;BME280;7577;45.226;5.798;2022-09-09T15:57:15;97919.30;;;24.92;33.03
14966;BME280;7577;45.226;5.798;2022-09-09T15:59:45;97921.97;;;24.81;35.22
14966;BME280;7577;45.226;5.798;2022-09-09T16:02:16;97918.78;;;24.63;34.88
14966;BME280;7577;45.226;5.798;2022-09-09T16:04:47;97917.20;;;24.49;35.90
14966;BME280;7577;45.226;5.798;2022-09-09T16:07:19;97921.14;;;24.48;35.57
14966;BME280;7577;45.226;5.798;2022-09-09T16:09:49;97912.95;;;24.45;36.05
14966;BME280;7577;45.226;5.798;2022-09-09T16:15:04;97906.78;;;24.42;35.04
14966;BME280;7577;45.226;5.798;2022-09-09T16:17:35;97913.81;;;24.33;34.71
14966;BME280;7577;45.226;5.798;2022-09-09T16:20:08;97907.25;;;24.02;39.09
14966;BME280;7577;45.226;5.798;2022-09-09T16:22:38;97914.41;;;24.03;37.09
14966;BME280;7577;45.226;5.798;2022-09-09T16:25:09;97918.03;;;23.90;36.41
14966;BME280;7577;45.226;5.798;2022-09-09T16:27:39;97911.47;;;23.79;36.38
14966;BME280;7577;45.226;5.798;2022-09-09T16:32:54;97903.21;;;23.96;37.38
14966;BME280;7577;45.226;5.798;2022-09-09T16:38:05;97906.95;;;24.10;37.20
14966;BME280;7577;45.226;5.798;2022-09-09T16:43:19;97911.98;;;24.14;36.75
14966;BME280;7577;45.226;5.798;2022-09-09T16:45:49;97917.37;;;24.00;37.60
14966;BME280;7577;45.226;5.798;2022-09-09T16:48:19;97921.59;;;23.91;36.96
14966;BME280;7577;45.226;5.798;2022-09-09T16:50:49;97920.13;;;23.87;37.81
14966;BME280;7577;45.226;5.798;2022-09-09T16:53:19;97912.08;;;23.79;38.17
14966;BME280;7577;45.226;5.798;2022-09-09T16:55:49;97918.96;;;23.62;37.81
14966;BME280;7577;45.226;5.798;2022-09-09T16:58:21;97915.56;;;23.59;37.97
14966;BME280;7577;45.226;5.798;2022-09-09T17:00:51;97913.73;;;23.57;38.32
14966;BME280;7577;45.226;5.798;2022-09-09T17:03:24;97908.86;;;23.51;38.46
14966;BME280;7577;45.226;5.798;2022-09-09T17:05:55;97917.89;;;23.44;39.08
14966;BME280;7577;45.226;5.798;2022-09-09T17:08:27;97922.49;;;23.33;39.54
14966;BME280;7577;45.226;5.798;2022-09-09T17:13:38;97924.64;;;23.21;40.09
14966;BME280;7577;45.226;5.798;2022-09-09T17:16:08;97928.31;;;23.15;41.75
14966;BME280;7577;45.226;5.798;2022-09-09T17:18:39;97932.48;;;23.15;41.63
14966;BME280;7577;45.226;5.798;2022-09-09T17:21:12;97931.25;;;23.13;42.11
14966;BME280;7577;45.226;5.798;2022-09-09T17:23:43;97926.41;;;22.87;39.84
14966;BME280;7577;45.226;5.798;2022-09-09T17:26:16;97925.78;;;22.84;40.18
14966;BME280;7577;45.226;5.798;2022-09-09T17:28:48;97926.77;;;22.86;41.43
14966;BME280;7577;45.226;5.798;2022-09-09T17:34:03;97921.77;;;22.82;42.43
14966;BME280;7577;45.226;5.798;2022-09-09T17:39:15;97935.05;;;22.73;43.38
14966;BME280;7577;45.226;5.798;2022-09-09T17:44:28;97937.56;;;22.59;42.46
14966;BME280;7577;45.226;5.798;2022-09-09T17:47:00;97934.52;;;22.54;43.50
14966;BME280;7577;45.226;5.798;2022-09-09T17:49:32;97939.34;;;22.48;41.73
14966;BME280;7577;45.226;5.798;2022-09-09T17:52:02;97938.44;;;22.44;41.52
14966;BME280;7577;45.226;5.798;2022-09-09T17:54:32;97934.00;;;22.30;41.09
14966;BME280;7577;45.226;5.798;2022-09-09T17:57:03;97936.77;;;22.30;40.85
14966;BME280;7577;45.226;5.798;2022-09-09T17:59:34;97935.00;;;22.41;45.05
14966;BME280;7577;45.226;5.798;2022-09-09T18:02:05;97940.28;;;22.46;43.62
14966;BME280;7577;45.226;5.798;2022-09-09T18:04:37;97933.61;;;22.41;42.85
14966;BME280;7577;45.226;5.798;2022-09-09T18:07:07;97939.62;;;22.43;43.37
14966;BME280;7577;45.226;5.798;2022-09-09T18:09:39;97940.91;;;22.39;45.10
14966;BME280;7577;45.226;5.798;2022-09-09T18:12:10;97942.59;;;22.34;43.32
14966;BME280;7577;45.226;5.798;2022-09-09T18:14:40;97939.82;;;22.34;43.00
14966;BME280;7577;45.226;5.798;2022-09-09T18:17:10;97947.36;;;22.34;45.82
14966;BME280;7577;45.226;5.798;2022-09-09T18:19:41;97953.27;;;22.32;44.47
14966;BME280;7577;45.226;5.798;2022-09-09T18:22:11;97955.09;;;22.15;43.06